Time;durP1;ratioP1;P1;durP2;ratioP2;P2;SDS_P1;SDS_P2;PMS_P1;PMS_P2;Temp;Humidity;BMP_temperature;BMP_pressure;BME280_temperature;BME280_humidity;BME280_pressure;Samples;Min_cycle;Max_cycle;Signal;HPM_P1;HPM_P2
2023/08/03 00:00:02;;;;;;;;;4.00;2.00;;;;;19.12;64.21;99274.94;5119203;27;62036;-80
2023/08/03 00:02:28;;;;;;;;;1.67;1.67;;;;;19.10;64.12;99279.69;5129659;27;45340;-79
2023/08/03 00:04:53;;;;;;;;;2.00;2.00;;;;;19.09;64.44;99272.59;5117979;27;45370;-79
2023/08/03 00:07:19;;;;;;;;;3.00;2.00;;;;;19.12;64.33;99291.13;5129774;27;45198;-79
2023/08/03 00:09:47;;;;;;;;;4.00;1.00;;;;;19.08;63.89;99282.53;5137912;27;58674;-79
2023/08/03 00:12:13;;;;;;;;;3.33;2.67;;;;;19.05;63.88;99296.38;5138344;27;45484;-79
2023/08/03 00:14:38;;;;;;;;;3.00;1.00;;;;;19.02;64.34;99290.50;5119972;27;45423;-79
2023/08/03 00:17:04;;;;;;;;;3.67;3.67;;;;;19.04;64.32;99301.94;5138781;27;45304;-78
2023/08/03 00:19:29;;;;;;;;;7.33;2.00;;;;;18.94;63.92;99263.56;5126674;27;45414;-77
2023/08/03 00:21:54;;;;;;;;;2.33;2.33;;;;;19.05;63.96;99298.22;5117296;27;49644;-79
2023/08/03 00:24:19;;;;;;;;;4.33;3.00;;;;;19.03;63.76;99294.88;5117064;27;54543;-79
2023/08/03 00:26:45;;;;;;;;;4.00;2.00;;;;;18.95;63.67;99287.63;5117699;27;45359;-79
2023/08/03 00:29:10;;;;;;;;;2.00;2.00;;;;;18.90;63.96;99267.63;5116038;27;51381;-78
2023/08/03 00:31:35;;;;;;;;;2.00;2.00;;;;;18.91;63.88;99285.47;5116962;27;63684;-81
2023/08/03 00:34:00;;;;;;;;;6.00;2.67;;;;;18.84;64.13;99269.13;5117369;27;56036;-79
2023/08/03 00:36:26;;;;;;;;;9.00;3.00;;;;;18.84;63.78;99275.34;5117393;27;45592;-79
2023/08/03 00:38:51;;;;;;;;;2.67;2.00;;;;;18.88;63.72;99291.16;5117310;27;48320;-79
2023/08/03 00:41:16;;;;;;;;;7.00;3.00;;;;;18.71;64.11;99276.88;5116859;27;56130;-80
2023/08/03 00:43:42;;;;;;;;;2.33;2.33;;;;;18.85;63.84;99295.88;5117517;27;45266;-78
2023/08/03 00:46:07;;;;;;;;;3.00;1.00;;;;;18.89;63.56;99299.09;5082172;27;45657;-79
2023/08/03 00:48:33;;;;;;;;;3.00;1.33;;;;;18.89;63.39;99301.78;5117225;27;46090;-78
2023/08/03 00:50:58;;;;;;;;;3.67;2.33;;;;;18.71;63.80;99268.81;5117229;27;45370;-79
2023/08/03 00:53:24;;;;;;;;;1.00;1.00;;;;;18.81;63.23;99285.63;5117305;27;45821;-80
2023/08/03 00:55:49;;;;;;;;;4.67;3.00;;;;;18.85;63.58;99295.88;5127369;27;45208;-79
2023/08/03 00:58:14;;;;;;;;;1.00;1.00;;;;;18.86;63.66;99308.34;5137804;27;45841;-79
2023/08/03 01:00:39;;;;;;;;;2.67;2.00;;;;;18.90;63.38;99306.16;5137732;27;45171;-79
2023/08/03 01:03:05;;;;;;;;;4.00;2.33;;;;;18.90;63.41;99286.47;5127961;27;45501;-81
2023/08/03 01:05:32;;;;;;;;;5.00;4.00;;;;;18.89;63.63;99303.66;5136730;27;45448;-79
2023/08/03 01:07:58;;;;;;;;;2.00;2.00;;;;;18.85;63.58;99297.75;5124897;27;46083;-80
2023/08/03 01:10:25;;;;;;;;;3.00;1.00;;;;;18.85;64.45;99303.13;5118790;27;45502;-80
2023/08/03 01:12:50;;;;;;;;;3.67;2.00;;;;;18.77;65.61;99301.28;5117039;27;45295;-81
2023/08/03 01:15:16;;;;;;;;;3.00;1.33;;;;;18.74;65.42;99307.00;5126011;27;45332;-80
2023/08/03 01:17:41;;;;;;;;;2.00;2.00;;;;;18.75;65.43;99311.41;5120297;27;46579;-79
2023/08/03 01:20:07;;;;;;;;;3.33;1.33;;;;;18.75;65.11;99330.25;5119528;27;53990;-77
2023/08/03 01:22:41;;;;;;;;;4.67;4.33;;;;;18.57;65.44;99305.31;5137901;27;45338;-78
2023/08/03 01:25:07;;;;;;;;;2.33;1.00;;;;;18.65;66.38;99337.66;5119539;27;45248;-81
2023/08/03 01:27:32;;;;;;;;;4.67;2.00;;;;;18.67;67.39;99350.94;5137599;27;46457;-78
2023/08/03 01:29:57;;;;;;;;;10.33;2.00;;;;;18.62;69.00;99345.19;5136775;27;62191;-80
2023/08/03 01:32:23;;;;;;;;;4.00;1.00;;;;;18.56;69.29;99362.84;5133335;27;47127;-77
2023/08/03 01:34:48;;;;;;;;;3.00;1.00;;;;;18.53;70.15;99364.03;5116963;27;45530;-80
2023/08/03 01:37:13;;;;;;;;;2.67;1.00;;;;;18.51;71.06;99365.22;5116487;27;45382;-79
2023/08/03 01:39:44;;;;;;;;;2.00;2.00;;;;;18.45;70.77;99363.16;5117423;27;45444;-81
2023/08/03 01:42:10;;;;;;;;;1.00;1.00;;;;;18.38;71.47;99375.63;5120480;27;45270;-79
2023/08/03 01:44:36;;;;;;;;;1.67;1.00;;;;;18.37;72.48;99373.94;5120792;27;45468;-79
2023/08/03 01:47:01;;;;;;;;;2.00;1.00;;;;;18.32;71.59;99387.03;5101984;27;47873;-79
2023/08/03 01:49:28;;;;;;;;;3.67;1.00;;;;;18.27;71.59;99374.94;5119579;27;58334;-80
2023/08/03 01:51:54;;;;;;;;;2.00;2.00;;;;;18.21;72.62;99374.72;5101437;27;45413;-80
2023/08/03 01:54:19;;;;;;;;;2.00;2.00;;;;;18.12;72.13;99365.81;5120417;27;45213;-78
2023/08/03 01:56:44;;;;;;;;;1.00;1.00;;;;;18.18;72.21;99380.44;5101514;27;46205;-78
2023/08/03 01:59:10;;;;;;;;;1.33;1.00;;;;;18.19;72.56;99377.59;5120001;27;45289;-78
2023/08/03 02:01:36;;;;;;;;;1.00;1.00;;;;;18.10;72.78;99394.75;5120550;27;45554;-82
2023/08/03 02:04:01;;;;;;;;;4.00;1.00;;;;;18.04;73.49;99381.06;5120119;27;45841;-79
2023/08/03 02:06:27;;;;;;;;;3.00;1.00;;;;;18.14;73.86;99401.47;5120275;27;46887;-79
2023/08/03 02:08:52;;;;;;;;;3.00;1.00;;;;;18.11;73.33;99390.19;5123482;27;45467;-79
2023/08/03 02:11:17;;;;;;;;;1.33;1.33;;;;;18.11;73.53;99391.03;5141337;27;45414;-81
2023/08/03 02:13:43;;;;;;;;;1.00;1.00;;;;;18.10;73.02;99400.13;5140998;27;45428;-79
2023/08/03 02:16:10;;;;;;;;;3.67;1.67;;;;;17.97;73.27;99383.59;5139089;27;65073;-77
2023/08/03 02:18:37;;;;;;;;;1.00;1.00;;;;;18.05;73.33;99396.22;5140256;27;45405;-79
2023/08/03 02:21:03;;;;;;;;;1.67;1.33;;;;;18.04;73.42;99406.13;5105486;27;45243;-80
2023/08/03 02:23:28;;;;;;;;;1.00;1.00;;;;;18.01;73.80;99411.84;5140785;27;45605;-79
2023/08/03 02:25:54;;;;;;;;;5.67;2.00;;;;;17.90;73.56;99399.53;5106393;27;46208;-79
2023/08/03 02:28:19;;;;;;;;;2.00;1.00;;;;;17.90;73.99;99406.75;5138484;27;51578;-79
2023/08/03 02:30:44;;;;;;;;;1.00;1.00;;;;;17.96;74.00;99424.91;5140145;27;45249;-77
2023/08/03 02:33:10;;;;;;;;;1.33;1.33;;;;;17.78;74.13;99392.75;5122018;27;45353;-81
2023/08/03 02:35:39;;;;;;;;;0.00;0.00;;;;;17.90;74.46;99425.56;5140477;27;46161;-79
2023/08/03 02:38:04;;;;;;;;;1.00;1.00;;;;;17.89;75.54;99419.34;5140072;27;45437;-79
2023/08/03 02:40:30;;;;;;;;;2.33;0.33;;;;;17.84;76.16;99427.06;5140424;27;45422;-79
2023/08/03 02:42:55;;;;;;;;;2.00;0.00;;;;;17.78;76.76;99432.25;5134940;27;45589;-78
2023/08/03 02:45:20;;;;;;;;;1.67;0.00;;;;;17.68;76.54;99417.06;5119213;27;46158;-79
2023/08/03 02:47:46;;;;;;;;;1.00;1.00;;;;;17.66;76.41;99419.03;5119203;27;45419;-79
2023/08/03 02:50:11;;;;;;;;;0.33;0.33;;;;;17.76;76.74;99434.25;5119159;27;45246;-79
2023/08/03 02:52:37;;;;;;;;;1.67;1.67;;;;;17.77;76.67;99438.63;5118839;27;45273;-78
2023/08/03 02:55:02;;;;;;;;;2.67;1.00;;;;;17.77;75.92;99442.16;5118349;27;65576;-80
2023/08/03 02:57:27;;;;;;;;;3.33;0.67;;;;;17.79;76.48;99440.13;5119133;27;45380;-78
2023/08/03 02:59:53;;;;;;;;;1.00;1.00;;;;;17.71;76.12;99436.56;5119058;27;45226;-80
2023/08/03 03:02:18;;;;;;;;;0.33;0.33;;;;;17.76;76.36;99445.00;5118296;27;57925;-79
2023/08/03 03:04:43;;;;;;;;;3.00;1.00;;;;;17.73;75.83;99437.25;5118656;27;45701;-78
2023/08/03 03:07:09;;;;;;;;;2.00;0.00;;;;;17.77;75.94;99458.28;5118449;27;63830;-78
2023/08/03 03:09:34;;;;;;;;;0.33;0.33;;;;;17.75;76.59;99444.16;5118619;27;45375;-79
2023/08/03 03:11:59;;;;;;;;;1.00;1.00;;;;;17.71;77.53;99442.81;5100622;27;45405;-78
2023/08/03 03:14:24;;;;;;;;;0.00;0.00;;;;;17.65;76.82;99444.25;5118737;27;45577;-78
2023/08/03 03:16:50;;;;;;;;;1.00;1.00;;;;;17.67;77.47;99454.81;5117936;27;60610;-79
2023/08/03 03:19:15;;;;;;;;;1.33;0.67;;;;;17.64;77.33;99453.31;5122428;27;45233;-79
2023/08/03 03:21:40;;;;;;;;;1.00;1.00;;;;;17.61;77.64;99448.25;5139276;27;48112;-79
2023/08/03 03:24:06;;;;;;;;;0.00;0.00;;;;;17.58;77.91;99455.81;5139409;27;45626;-79
2023/08/03 03:26:31;;;;;;;;;2.00;0.67;;;;;17.51;78.07;99446.66;5138429;27;45501;-79
2023/08/03 03:28:56;;;;;;;;;1.00;1.00;;;;;17.47;78.82;99453.38;5136035;27;51383;-81
2023/08/03 03:31:21;;;;;;;;;1.67;1.67;;;;;17.46;78.51;99460.59;5126729;27;45493;-78
2023/08/03 03:33:47;;;;;;;;;2.00;2.00;;;;;17.33;78.23;99446.72;5138561;27;56517;-78
2023/08/03 03:36:12;;;;;;;;;2.00;0.67;;;;;17.38;79.04;99456.00;5127712;27;45324;-81
2023/08/03 03:38:38;;;;;;;;;1.33;1.00;;;;;17.42;78.18;99464.56;5119012;27;45412;-79
2023/08/03 03:41:03;;;;;;;;;0.00;0.00;;;;;17.50;78.40;99472.72;5118562;27;45483;-79
2023/08/03 03:43:28;;;;;;;;;4.00;1.33;;;;;17.46;78.07;99465.97;5118087;27;45461;-78
2023/08/03 03:45:54;;;;;;;;;0.00;0.00;;;;;17.47;77.94;99461.44;5117668;27;63603;-77
2023/08/03 03:48:19;;;;;;;;;3.00;2.00;;;;;17.46;77.85;99474.03;5128893;27;45409;-79
2023/08/03 03:50:44;;;;;;;;;2.00;0.67;;;;;17.36;78.58;99465.22;5139191;27;45477;-80
2023/08/03 03:53:10;;;;;;;;;2.00;1.00;;;;;17.37;78.14;99469.59;5138364;27;66277;-80
2023/08/03 03:55:35;;;;;;;;;0.67;0.67;;;;;17.46;78.60;99482.09;5138930;27;45448;-79
2023/08/03 03:58:02;;;;;;;;;1.33;0.00;;;;;17.45;78.44;99469.66;5138701;27;47776;-78
2023/08/03 04:00:28;;;;;;;;;1.33;1.00;;;;;17.45;78.30;99483.09;5139070;27;45625;-78
2023/08/03 04:02:53;;;;;;;;;2.67;1.00;;;;;17.37;78.41;99472.28;5102430;27;48043;-79
2023/08/03 04:05:18;;;;;;;;;2.00;0.00;;;;;17.49;77.64;99489.00;5138152;27;49867;-82
2023/08/03 04:07:44;;;;;;;;;0.00;0.00;;;;;17.47;77.82;99478.41;5139131;27;45224;-85
2023/08/03 04:10:09;;;;;;;;;1.00;1.00;;;;;17.48;78.24;99474.72;5120384;27;45256;-81
2023/08/03 04:12:34;;;;;;;;;2.00;0.00;;;;;17.48;78.25;99484.63;5138669;27;45336;-79
2023/08/03 04:15:00;;;;;;;;;0.33;0.33;;;;;17.51;78.06;99495.06;5138701;27;45254;-80
2023/08/03 04:17:25;;;;;;;;;0.33;0.33;;;;;17.47;78.04;99488.31;5138602;27;45293;-79
2023/08/03 04:19:50;;;;;;;;;4.67;2.00;;;;;17.44;77.83;99473.31;5139057;27;45438;-80
2023/08/03 04:22:16;;;;;;;;;2.00;1.00;;;;;17.52;78.30;99494.91;5138455;27;46026;-79
2023/08/03 04:24:41;;;;;;;;;0.67;0.33;;;;;17.51;78.06;99495.91;5129330;27;45563;-80
2023/08/03 04:27:06;;;;;;;;;1.33;1.00;;;;;17.51;78.34;99495.91;5117906;27;45410;-82
2023/08/03 04:29:32;;;;;;;;;0.33;0.00;;;;;17.51;78.10;99495.91;5117698;27;45282;-80
2023/08/03 04:31:58;;;;;;;;;1.00;1.00;;;;;17.50;77.85;99499.59;5117623;27;46312;-83
2023/08/03 04:34:23;;;;;;;;;1.00;1.00;;;;;17.39;78.00;99483.72;5117655;27;45369;-83
2023/08/03 04:36:48;;;;;;;;;1.00;1.00;;;;;17.51;77.89;99498.59;5117725;27;45335;-81
2023/08/03 04:39:14;;;;;;;;;1.00;1.00;;;;;17.59;77.55;99503.19;5118261;27;45552;-82
2023/08/03 04:41:39;;;;;;;;;2.00;1.00;;;;;17.60;77.37;99499.50;5117450;27;46263;-82
2023/08/03 04:44:04;;;;;;;;;1.00;1.00;;;;;17.50;77.05;99486.16;5117395;27;45355;-83
2023/08/03 04:46:30;;;;;;;;;1.00;1.00;;;;;17.60;76.95;99500.34;5117632;27;45433;-79
2023/08/03 04:48:55;;;;;;;;;5.33;2.00;;;;;17.59;76.95;99504.03;5117068;27;54587;-80
2023/08/03 04:51:20;;;;;;;;;0.33;0.33;;;;;17.47;77.43;99494.53;5116837;27;45932;-80
2023/08/03 04:53:46;;;;;;;;;1.00;1.00;;;;;17.50;77.22;99499.59;5117782;27;45430;-82
2023/08/03 04:56:11;;;;;;;;;1.00;1.00;;;;;17.49;77.22;99492.53;5099009;27;45386;-82
2023/08/03 04:58:36;;;;;;;;;1.00;1.00;;;;;17.52;77.24;99505.66;5117480;27;45616;-81
2023/08/03 05:01:02;;;;;;;;;3.67;2.00;;;;;17.56;77.79;99504.31;5116825;27;55774;-83
2023/08/03 05:03:27;;;;;;;;;0.00;0.00;;;;;17.55;77.72;99513.38;5116999;27;45233;-82
2023/08/03 05:05:52;;;;;;;;;1.67;1.67;;;;;17.62;77.71;99519.84;5117201;27;45242;-80
2023/08/03 05:08:18;;;;;;;;;2.00;2.00;;;;;17.61;78.08;99518.16;5129252;27;45224;-83
2023/08/03 05:10:43;;;;;;;;;1.67;1.67;;;;;17.57;78.00;99505.16;5138079;27;46044;-79
2023/08/03 05:13:09;;;;;;;;;2.00;2.00;;;;;17.52;77.80;99502.97;5137388;27;51692;-80
2023/08/03 05:15:34;;;;;;;;;4.00;1.67;;;;;17.58;77.90;99523.00;5137645;27;45620;-80
2023/08/03 05:18:01;;;;;;;;;4.00;3.00;;;;;17.63;77.62;99520.69;5141557;27;45319;-81
2023/08/03 05:20:27;;;;;;;;;4.33;1.00;;;;;17.60;78.06;99521.84;5140821;27;45526;-80
2023/08/03 05:22:52;;;;;;;;;2.00;1.00;;;;;17.49;77.92;99492.53;5140782;27;45400;-80
2023/08/03 05:25:18;;;;;;;;;1.00;1.00;;;;;17.61;78.39;99525.38;5133395;27;45431;-83
2023/08/03 05:27:43;;;;;;;;;1.33;1.33;;;;;17.67;78.13;99536.34;5141235;27;45454;-80
2023/08/03 05:30:09;;;;;;;;;2.00;2.00;;;;;17.73;78.00;99547.50;5141163;27;45386;-80
2023/08/03 05:32:34;;;;;;;;;1.33;1.33;;;;;17.70;78.11;99532.50;5140726;27;45477;-82
2023/08/03 05:35:00;;;;;;;;;5.00;2.00;;;;;17.74;77.56;99539.28;5123876;27;45342;-83
2023/08/03 05:37:25;;;;;;;;;2.00;2.00;;;;;17.79;77.61;99544.19;5142960;27;45314;-80
2023/08/03 05:39:51;;;;;;;;;3.00;1.67;;;;;17.80;77.90;99548.56;5140375;27;65459;-79
2023/08/03 05:42:17;;;;;;;;;3.00;2.00;;;;;17.68;77.50;99535.38;5141785;27;45382;-79
2023/08/03 05:44:43;;;;;;;;;3.33;2.00;;;;;17.79;77.47;99547.72;5141482;27;45302;-82
2023/08/03 05:47:10;;;;;;;;;3.00;2.00;;;;;17.86;77.49;99553.31;5122300;27;45242;-79
2023/08/03 05:49:36;;;;;;;;;2.67;2.67;;;;;17.88;76.97;99565.59;5140372;27;46258;-81
2023/08/03 05:52:02;;;;;;;;;2.00;2.00;;;;;17.78;77.61;99547.88;5141107;27;45443;-79
2023/08/03 05:54:28;;;;;;;;;2.67;2.00;;;;;17.93;77.15;99565.13;5140944;27;45339;-79
2023/08/03 05:56:53;;;;;;;;;2.00;2.00;;;;;17.87;77.01;99557.69;5141042;27;45441;-81
2023/08/03 05:59:21;;;;;;;;;2.67;2.67;;;;;17.89;76.85;99563.75;5140728;27;46173;-83
2023/08/03 06:01:51;;;;;;;;;2.67;2.00;;;;;17.96;76.96;99567.50;5122275;27;45768;-84
2023/08/03 06:04:17;;;;;;;;;2.00;2.00;;;;;17.96;76.86;99576.41;5121391;27;45652;-81
2023/08/03 06:06:44;;;;;;;;;4.67;3.67;;;;;17.89;76.39;99561.06;5126737;27;45633;-80
2023/08/03 06:09:11;;;;;;;;;5.33;2.00;;;;;17.93;76.40;99555.22;5139498;27;46262;-82
2023/08/03 06:11:38;;;;;;;;;3.00;2.00;;;;;18.05;75.76;99566.56;5139925;27;45368;-82
2023/08/03 06:14:05;;;;;;;;;3.33;2.67;;;;;18.19;75.00;99582.09;5121929;27;45318;-79
2023/08/03 06:16:30;;;;;;;;;3.00;3.00;;;;;18.21;75.07;99582.78;5140475;27;45613;-79
2023/08/03 06:19:00;;;;;;;;;3.00;1.00;;;;;18.21;74.92;99579.25;5140292;27;46643;-81
2023/08/03 06:21:26;;;;;;;;;3.67;1.67;;;;;18.31;74.61;99580.00;5140223;27;45339;-83
2023/08/03 06:23:57;;;;;;;;;2.00;2.00;;;;;18.30;74.20;99583.69;5141002;27;45251;-85
2023/08/03 06:26:24;;;;;;;;;1.00;1.00;;;;;18.36;73.92;99587.56;5139091;27;45568;-80
2023/08/03 06:28:49;;;;;;;;;3.33;3.00;;;;;18.41;73.89;99582.56;5140453;27;45647;-80
2023/08/03 06:31:30;;;;;;;;;1.67;1.67;;;;;18.46;73.47;99588.31;5139817;27;45430;-80
2023/08/03 06:33:56;;;;;;;;;2.00;2.00;;;;;18.41;73.39;99580.72;5140329;27;45322;-80
2023/08/03 06:36:26;;;;;;;;;4.00;1.67;;;;;18.51;73.16;99599.47;5140765;27;45409;-80
2023/08/03 06:38:52;;;;;;;;;3.00;2.00;;;;;18.48;73.46;99597.06;5121546;27;47221;-78
2023/08/03 06:41:18;;;;;;;;;4.00;2.67;;;;;18.48;73.08;99597.06;5139760;27;45301;-80
2023/08/03 06:43:44;;;;;;;;;5.00;2.00;;;;;18.46;73.11;99599.91;5140008;27;45205;-78
2023/08/03 06:46:10;;;;;;;;;2.67;2.00;;;;;18.43;73.07;99594.84;5140397;27;45513;-78
2023/08/03 06:48:35;;;;;;;;;3.00;1.00;;;;;18.45;73.02;99608.16;5139616;27;46269;-79
2023/08/03 06:51:02;;;;;;;;;1.33;1.00;;;;;18.46;73.04;99613.38;5139435;27;45387;-80
2023/08/03 06:53:28;;;;;;;;;3.67;3.67;;;;;18.38;74.13;99601.75;5139783;27;45360;-80
2023/08/03 06:55:53;;;;;;;;;1.00;1.00;;;;;18.44;74.71;99628.84;5140290;27;45328;-80
2023/08/03 06:58:19;;;;;;;;;1.00;1.00;;;;;18.41;75.29;99639.94;5139513;27;45453;-81
2023/08/03 07:00:45;;;;;;;;;4.33;2.33;;;;;18.38;76.36;99637.56;5139582;27;45342;-79
2023/08/03 07:03:11;;;;;;;;;2.00;2.00;;;;;18.41;76.49;99639.94;5139627;27;45341;-79
2023/08/03 07:05:37;;;;;;;;;3.00;2.33;;;;;18.36;76.13;99614.50;5139743;27;45558;-81
2023/08/03 07:08:03;;;;;;;;;3.67;3.67;;;;;18.46;75.85;99647.53;5138992;27;46180;-81
2023/08/03 07:10:29;;;;;;;;;2.00;2.00;;;;;18.39;76.25;99630.34;5120507;27;45405;-81
2023/08/03 07:12:54;;;;;;;;;4.00;2.33;;;;;18.44;75.54;99649.53;5140092;27;45340;-80
2023/08/03 07:15:19;;;;;;;;;5.33;2.67;;;;;18.46;75.94;99650.22;5139812;27;45535;-80
2023/08/03 07:17:45;;;;;;;;;3.67;3.33;;;;;18.37;75.95;99643.13;5139440;27;50566;-82
2023/08/03 07:20:12;;;;;;;;;4.00;4.00;;;;;18.50;76.17;99657.84;5139582;27;45367;-81
2023/08/03 07:22:37;;;;;;;;;2.00;2.00;;;;;18.38;75.86;99634.88;5120775;27;45360;-79
2023/08/03 07:25:03;;;;;;;;;3.00;3.00;;;;;18.50;75.94;99662.38;5139915;27;45477;-81
2023/08/03 07:27:29;;;;;;;;;10.33;2.67;;;;;18.34;75.54;99638.03;5139807;27;45490;-79
2023/08/03 07:29:54;;;;;;;;;5.67;2.00;;;;;18.55;75.93;99676.19;5139382;27;45410;-79
2023/08/03 07:32:19;;;;;;;;;4.67;1.67;;;;;18.59;75.28;99672.19;5139471;27;45376;-82
2023/08/03 07:34:45;;;;;;;;;2.33;2.33;;;;;18.64;74.93;99682.53;5120999;27;45342;-80
2023/08/03 07:37:10;;;;;;;;;4.00;2.67;;;;;18.46;75.94;99658.31;5138512;27;46037;-80
2023/08/03 07:39:36;;;;;;;;;6.00;3.00;;;;;18.61;75.93;99689.00;5139209;27;45391;-79
2023/08/03 07:42:01;;;;;;;;;2.67;2.00;;;;;18.58;75.81;99687.50;5139271;27;45308;-81
2023/08/03 07:44:27;;;;;;;;;5.33;2.00;;;;;18.59;76.28;99688.34;5139608;27;45674;-81
2023/08/03 07:46:52;;;;;;;;;3.00;3.00;;;;;18.49;76.08;99671.44;5139240;27;45304;-79
2023/08/03 07:49:18;;;;;;;;;3.33;2.67;;;;;18.66;75.22;99692.13;5138633;27;51472;-79
2023/08/03 07:51:48;;;;;;;;;5.33;4.00;;;;;18.75;75.43;99691.19;5139108;27;45277;-80
2023/08/03 07:54:13;;;;;;;;;3.00;3.00;;;;;18.69;75.26;99670.25;5139710;27;45307;-79
2023/08/03 07:56:39;;;;;;;;;3.67;2.00;;;;;18.77;74.06;99680.25;5138801;27;46067;-80
2023/08/03 07:59:05;;;;;;;;;3.00;3.00;;;;;18.82;74.72;99710.22;5138924;27;45414;-81
2023/08/03 08:01:31;;;;;;;;;2.00;2.00;;;;;18.81;74.78;99697.75;5120422;27;45305;-81
2023/08/03 08:04:01;;;;;;;;;3.00;3.00;;;;;18.66;74.83;99684.06;5139505;27;45553;-81
2023/08/03 08:06:27;;;;;;;;;1.00;0.00;;;;;18.76;74.95;99711.72;5139149;27;45969;-81
2023/08/03 08:08:52;;;;;;;;;4.00;4.00;;;;;18.54;75.16;99685.28;5119983;27;45443;-81
2023/08/03 08:11:18;;;;;;;;;1.67;1.67;;;;;18.76;74.58;99711.72;5138832;27;45699;-79
2023/08/03 08:13:44;;;;;;;;;3.00;2.00;;;;;18.79;74.65;99715.94;5139229;27;45363;-77
2023/08/03 08:16:12;;;;;;;;;4.00;4.00;;;;;18.78;74.75;99714.25;5138382;27;45437;-79
2023/08/03 08:18:38;;;;;;;;;4.67;3.00;;;;;18.90;74.48;99714.81;5138887;27;45240;-78
2023/08/03 08:21:05;;;;;;;;;1.33;1.33;;;;;19.04;73.45;99733.06;5120129;27;45433;-80
2023/08/03 08:23:32;;;;;;;;;4.33;3.00;;;;;19.17;73.19;99722.69;5139047;27;45309;-80
2023/08/03 08:25:57;;;;;;;;;3.00;2.00;;;;;19.22;72.18;99725.75;5138484;27;46086;-79
2023/08/03 08:28:23;;;;;;;;;3.00;3.00;;;;;19.29;72.27;99737.56;5138353;27;45535;-78
2023/08/03 08:30:49;;;;;;;;;4.33;3.00;;;;;19.24;72.58;99726.41;5138625;27;45441;-83
2023/08/03 08:33:16;;;;;;;;;3.00;3.00;;;;;19.21;72.51;99734.84;5138748;27;45438;-79
2023/08/03 08:35:42;;;;;;;;;3.00;3.00;;;;;19.25;72.58;99746.97;5137918;27;46193;-78
2023/08/03 08:38:15;;;;;;;;;2.00;2.00;;;;;19.08;72.96;99729.03;5137897;27;45379;-77
2023/08/03 08:40:41;;;;;;;;;2.00;2.00;;;;;19.18;73.14;99755.88;5137953;27;45333;-76
2023/08/03 08:43:07;;;;;;;;;2.00;2.00;;;;;19.16;73.29;99747.97;5138265;27;45523;-77
2023/08/03 08:45:34;;;;;;;;;1.67;1.67;;;;;19.16;72.95;99750.66;5137798;27;45475;-77
2023/08/03 08:47:59;;;;;;;;;4.00;3.00;;;;;19.21;73.36;99751.00;5138175;27;45382;-78
2023/08/03 08:50:25;;;;;;;;;2.00;2.00;;;;;19.37;72.48;99755.63;5136770;27;45249;-76
2023/08/03 08:52:52;;;;;;;;;3.33;2.67;;;;;19.38;72.19;99736.56;5137979;27;45542;-78
2023/08/03 08:55:22;;;;;;;;;2.00;2.00;;;;;19.37;71.78;99726.78;5137657;27;45585;-78
2023/08/03 08:57:48;;;;;;;;;1.00;1.00;;;;;19.63;71.52;99747.47;5119132;27;45215;-77
2023/08/03 09:00:14;;;;;;;;;3.00;2.67;;;;;19.67;70.51;99746.16;5119391;27;45349;-77
2023/08/03 09:02:39;;;;;;;;;2.00;2.00;;;;;19.90;69.91;99757.97;5119336;27;45562;-76
2023/08/03 09:05:21;;;;;;;;;1.67;1.33;;;;;19.99;69.85;99773.19;5137603;27;46069;-76
2023/08/03 09:08:03;;;;;;;;;4.00;3.33;;;;;19.96;69.80;99773.53;5137531;27;45483;-77
2023/08/03 09:10:29;;;;;;;;;3.00;1.00;;;;;19.86;70.23;99785.47;5138058;27;45407;-77
2023/08/03 09:12:55;;;;;;;;;2.67;2.00;;;;;19.73;70.21;99767.06;5137780;27;45447;-78
2023/08/03 09:15:40;;;;;;;;;9.33;3.33;;;;;19.71;70.17;99780.72;5137318;27;46027;-77
2023/08/03 09:18:07;;;;;;;;;3.67;3.00;;;;;19.80;70.70;99784.28;5118843;27;45607;-76
2023/08/03 09:20:33;;;;;;;;;4.00;2.33;;;;;19.85;70.04;99787.34;5137798;27;45435;-77
2023/08/03 09:23:00;;;;;;;;;3.33;2.67;;;;;19.97;70.21;99791.41;5138101;27;45583;-76
2023/08/03 09:25:26;;;;;;;;;3.33;2.67;;;;;20.00;70.68;99785.66;5137286;27;45249;-76
2023/08/03 09:27:54;;;;;;;;;4.00;2.33;;;;;20.11;70.16;99791.75;5137330;27;45257;-77
2023/08/03 09:30:20;;;;;;;;;2.67;2.67;;;;;20.06;69.55;99783.34;5137368;27;45441;-78
2023/08/03 09:32:46;;;;;;;;;3.00;2.67;;;;;20.09;70.08;99785.69;5137227;27;45282;-76
2023/08/03 09:35:20;;;;;;;;;2.67;2.67;;;;;20.14;70.23;99786.03;5137047;27;46134;-77
2023/08/03 09:37:46;;;;;;;;;2.33;2.00;;;;;20.17;70.41;99793.78;5118548;27;45464;-76
2023/08/03 09:40:12;;;;;;;;;6.00;3.33;;;;;20.12;69.88;99771.84;5137308;27;45332;-76
2023/08/03 09:42:40;;;;;;;;;1.67;1.67;;;;;20.39;69.90;99798.53;5137446;27;45536;-77
2023/08/03 09:45:07;;;;;;;;;3.75;2.50;;;;;20.53;68.63;99803.28;5136844;27;46430;-77
2023/08/03 09:47:34;;;;;;;;;1.50;1.50;;;;;20.61;68.55;99797.06;5137376;27;45452;-75
2023/08/03 09:50:00;;;;;;;;;2.67;2.67;;;;;20.67;67.65;99787.41;5137453;27;45345;-77
2023/08/03 09:52:28;;;;;;;;;2.33;0.67;;;;;20.83;67.17;99796.38;5137283;27;45423;-77
2023/08/03 09:55:06;;;;;;;;;4.33;4.33;;;;;21.13;66.48;99796.63;5136882;27;45423;-77
2023/08/03 09:57:39;;;;;;;;;4.00;2.33;;;;;21.34;65.63;99783.41;5137251;27;45621;-76
2023/08/03 10:00:08;;;;;;;;;1.25;1.25;;;;;21.66;63.28;99768.06;5118587;27;45358;-75
2023/08/03 10:02:44;;;;;;;;;1.75;1.75;;;;;21.95;63.10;99797.16;5140972;27;45467;-75
2023/08/03 10:05:16;;;;;;;;;3.00;2.75;;;;;22.22;63.16;99801.22;5121440;27;47181;-76
2023/08/03 10:07:55;;;;;;;;;1.00;1.00;;;;;22.41;61.66;99795.34;5140289;27;45272;-79
2023/08/03 10:10:23;;;;;;;;;2.00;2.00;;;;;22.47;60.79;99794.59;5140467;27;45420;-78
2023/08/03 10:12:56;;;;;;;;;1.25;1.25;;;;;22.85;59.37;99808.19;5140513;27;45252;-77
2023/08/03 10:15:23;;;;;;;;;3.00;1.25;;;;;22.98;58.96;99799.44;5121392;27;47397;-77
2023/08/03 10:17:49;;;;;;;;;2.00;2.00;;;;;23.02;58.82;99811.59;5140185;27;45305;-76
2023/08/03 10:20:14;;;;;;;;;2.75;2.75;;;;;23.10;58.04;99820.50;5140291;27;45459;-77
2023/08/03 10:23:10;;;;;;;;;1.00;1.00;;;;;23.00;57.00;99821.78;5140380;27;45543;-77
2023/08/03 10:26:02;;;;;;;;;3.00;1.50;;;;;23.00;57.66;99828.03;5140457;27;46250;-76
2023/08/03 10:28:45;;;;;;;;;2.00;2.00;;;;;23.00;58.34;99830.75;5140044;27;45287;-76
2023/08/03 10:31:15;;;;;;;;;2.00;2.00;;;;;23.06;56.78;99843.59;5121052;27;45439;-78
2023/08/03 10:33:46;;;;;;;;;3.00;3.00;;;;;23.00;56.95;99838.03;5140322;27;45541;-77
2023/08/03 10:36:38;;;;;;;;;2.00;1.75;;;;;22.83;57.71;99840.91;5139689;27;46023;-77
2023/08/03 10:39:09;;;;;;;;;1.00;1.00;;;;;22.55;57.64;99839.78;5140222;27;45289;-79
2023/08/03 10:41:39;;;;;;;;;1.50;1.50;;;;;22.34;58.29;99846.69;5140302;27;45338;-76
2023/08/03 10:44:05;;;;;;;;;1.50;0.50;;;;;22.09;58.74;99845.16;5140505;27;45395;-78
2023/08/03 10:46:32;;;;;;;;;0.75;0.75;;;;;21.95;58.98;99854.00;5139754;27;45389;-78
2023/08/03 10:48:57;;;;;;;;;3.50;1.50;;;;;21.86;59.76;99850.47;5139827;27;45422;-77
2023/08/03 10:51:23;;;;;;;;;1.75;1.75;;;;;21.70;60.16;99855.97;5139956;27;45816;-76
2023/08/03 10:53:48;;;;;;;;;2.25;2.00;;;;;21.50;60.70;99839.31;5139861;27;45228;-77
2023/08/03 10:56:14;;;;;;;;;2.00;2.00;;;;;21.52;60.46;99858.09;5139536;27;46173;-77
2023/08/03 10:58:50;;;;;;;;;5.00;2.00;;;;;21.48;60.98;99855.75;5139509;27;45312;-78
2023/08/03 11:01:23;;;;;;;;;1.00;1.00;;;;;21.54;61.00;99862.31;5139699;27;45293;-75
2023/08/03 11:03:49;;;;;;;;;2.00;2.00;;;;;21.54;60.72;99847.94;5139864;27;45518;-78
2023/08/03 11:06:16;;;;;;;;;5.75;4.50;;;;;21.56;60.58;99865.66;5139285;27;45946;-77
2023/08/03 11:08:44;;;;;;;;;1.75;1.75;;;;;21.58;60.81;99873.59;5139262;27;45305;-78
2023/08/03 11:11:13;;;;;;;;;1.00;1.00;;;;;21.60;60.10;99872.41;5139512;27;45413;-77
2023/08/03 11:13:42;;;;;;;;;2.00;2.00;;;;;21.50;60.18;99852.84;5138904;27;45346;-78
2023/08/03 11:16:07;;;;;;;;;4.00;2.00;;;;;21.60;60.15;99876.97;5139512;27;46607;-77
2023/08/03 11:18:36;;;;;;;;;3.00;1.00;;;;;21.64;60.01;99873.78;5139228;27;45471;-77
2023/08/03 11:21:01;;;;;;;;;1.50;1.00;;;;;21.79;59.49;99868.47;5139444;27;45479;-77
2023/08/03 11:23:31;;;;;;;;;1.75;1.75;;;;;21.72;59.86;99862.91;5121037;27;45522;-77
2023/08/03 11:25:57;;;;;;;;;1.00;1.00;;;;;21.74;60.05;99879.78;5139282;27;46305;-77
2023/08/03 11:28:23;;;;;;;;;2.00;2.00;;;;;21.64;59.98;99881.88;5120529;27;45459;-76
2023/08/03 11:30:48;;;;;;;;;1.00;1.00;;;;;21.53;60.63;99881.41;5139120;27;45375;-76